createdAt,value
2018-04-23T00:01:57.948Z,93841.34
2018-04-23T00:04:28.515Z,93843.06
2018-04-23T00:06:57.255Z,93843.54
2018-04-23T00:09:25.671Z,93839.39
2018-04-23T00:11:54.215Z,93835.66
2018-04-23T00:14:22.662Z,93838.22
2018-04-23T00:16:51.088Z,93846.33
2018-04-23T00:19:19.548Z,93846.22
2018-04-23T00:21:48.096Z,93847.20
2018-04-23T00:24:16.558Z,93846.27
2018-04-23T00:26:47.041Z,93841.72
2018-04-23T00:29:17.544Z,93838.45
2018-04-23T00:31:45.969Z,93839.19
2018-04-23T00:34:16.569Z,93838.34
2018-04-23T00:36:45.015Z,93831.42
2018-04-23T00:39:13.427Z,93831.52
2018-04-23T00:41:46.310Z,93832.77
2018-04-23T00:44:16.827Z,93817.73
2018-04-23T00:46:45.307Z,93816.49
2018-04-23T00:49:13.780Z,93824.69
2018-04-23T00:51:42.214Z,93833.39
2018-04-23T00:54:10.956Z,93833.35
2018-04-23T00:56:39.373Z,93838.84
2018-04-23T00:59:07.824Z,93841.11
2018-04-23T01:01:36.240Z,93838.97
2018-04-23T01:04:08.838Z,93842.69
2018-04-23T01:06:37.562Z,93834.75
2018-04-23T01:09:05.974Z,93833.39
2018-04-23T01:11:34.399Z,93827.65
2018-04-23T01:14:04.900Z,93827.78
2018-04-23T01:16:33.247Z,93835.20
2018-04-23T01:19:01.683Z,93836.41
2018-04-23T01:21:30.139Z,93813.07
2018-04-23T01:24:00.716Z,93815.72
2018-04-23T01:26:29.145Z,93826.92
2018-04-23T01:28:57.559Z,93831.93
2018-04-23T01:31:26.955Z,93831.23
2018-04-23T01:33:55.778Z,93831.34
2018-04-23T01:36:24.217Z,93831.03
2018-04-23T01:38:52.651Z,93831.53
2018-04-23T01:41:21.404Z,93835.12
2018-04-23T01:43:49.810Z,93840.83
2018-04-23T01:46:20.372Z,93843.30
2018-04-23T01:48:48.806Z,93838.58
2018-04-23T01:51:17.210Z,93839.73
2018-04-23T01:53:47.788Z,93840.13
2018-04-23T01:56:16.183Z,93832.91
2018-04-23T01:58:46.765Z,93843.17
2018-04-23T02:01:15.239Z,93846.21
2018-04-23T02:03:43.684Z,93851.41
2018-04-23T02:06:14.170Z,93845.20
2018-04-23T02:08:42.634Z,93842.90
2018-04-23T02:11:11.059Z,93836.94
2018-04-23T02:13:39.475Z,93831.43
2018-04-23T02:16:10.063Z,93840.54
2018-04-23T02:18:38.443Z,93842.35
2018-04-23T02:21:08.954Z,93827.87
2018-04-23T02:23:37.413Z,93835.72
2018-04-23T02:26:05.848Z,93836.59
2018-04-23T02:28:36.434Z,93831.87
2018-04-23T02:31:04.856Z,93831.55
2018-04-23T02:33:33.625Z,93830.95
2018-04-23T02:36:02.059Z,93823.11
2018-04-23T02:38:30.487Z,93831.06
2018-04-23T02:40:58.944Z,93837.19
2018-04-23T02:43:27.349Z,93836.07
2018-04-23T02:45:55.755Z,93828.92
2018-04-23T02:48:24.520Z,93824.58
2018-04-23T02:50:52.970Z,93825.79
2018-04-23T02:53:21.384Z,93823.63
2018-04-23T02:55:49.812Z,93819.20
2018-04-23T02:58:18.311Z,93818.69
2018-04-23T03:00:46.758Z,93825.02
2018-04-23T03:03:15.174Z,93824.09
2018-04-23T03:05:45.921Z,93822.15
2018-04-23T03:08:14.330Z,93827.86
2018-04-23T03:10:42.784Z,93823.99
2018-04-23T03:13:11.187Z,93823.52
2018-04-23T03:15:39.639Z,93831.89
2018-04-23T03:18:10.206Z,93826.67
2018-04-23T03:20:39.163Z,93825.53
2018-04-23T03:23:09.746Z,93826.48
2018-04-23T03:25:38.192Z,93829.83
2018-04-23T03:28:09.000Z,93833.07
2018-04-23T03:30:37.414Z,93829.39
2018-04-23T03:33:05.819Z,93833.92
2018-04-23T03:35:35.294Z,93826.38
2018-04-23T03:38:03.721Z,93827.63
2018-04-23T03:40:32.129Z,93830.39
2018-04-23T03:43:00.638Z,93829.47
2018-04-23T03:45:29.108Z,93836.90
2018-04-23T03:47:57.625Z,93835.69
2018-04-23T03:50:28.295Z,93833.55
2018-04-23T03:52:58.887Z,93832.41
2018-04-23T03:55:27.318Z,93831.48
2018-04-23T03:57:55.727Z,93825.42
2018-04-23T04:00:24.231Z,93830.38
2018-04-23T04:02:52.886Z,93830.81
2018-04-23T04:05:23.467Z,93835.77
2018-04-23T04:07:51.892Z,93827.76
2018-04-23T04:10:20.318Z,93831.87
2018-04-23T04:12:54.938Z,93832.39
2018-04-23T04:15:31.607Z,93827.76
2018-04-23T04:18:17.050Z,93831.28
2018-04-23T04:20:45.554Z,93834.23
2018-04-23T04:23:14.108Z,93831.11
2018-04-23T04:25:44.911Z,93837.00
2018-04-23T04:28:13.331Z,93838.11
2018-04-23T04:30:41.740Z,93843.22
2018-04-23T04:33:10.243Z,93837.05
2018-04-23T04:35:41.653Z,93837.34
2018-04-23T04:38:10.086Z,93840.06
2018-04-23T04:40:38.513Z,93835.45
2018-04-23T04:43:06.935Z,93838.04
2018-04-23T04:45:35.340Z,93837.81
2018-04-23T04:48:03.807Z,93837.08
2018-04-23T04:50:32.203Z,93840.91
2018-04-23T04:53:00.647Z,93841.02
2018-04-23T04:55:29.084Z,93834.77
2018-04-23T04:57:59.610Z,93834.25
2018-04-23T05:00:28.028Z,93832.29
2018-04-23T05:02:56.537Z,93830.83
2018-04-23T05:05:24.946Z,93835.98
2018-04-23T05:07:55.478Z,93833.48
2018-04-23T05:10:23.890Z,93841.43
2018-04-23T05:12:52.688Z,93837.95
2018-04-23T05:15:21.094Z,93847.38
2018-04-23T05:17:49.509Z,93847.45
2018-04-23T05:20:19.628Z,93842.23
2018-04-23T05:22:50.020Z,93843.71
2018-04-23T05:25:18.458Z,93853.45
2018-04-23T05:27:46.855Z,93850.22
2018-04-23T05:30:15.325Z,93847.31
2018-04-23T05:32:45.758Z,93841.89
2018-04-23T05:35:14.209Z,93841.36
2018-04-23T05:37:42.624Z,93840.92
2018-04-23T05:40:11.048Z,93847.57
2018-04-23T05:42:43.104Z,93851.31
2018-04-23T05:45:17.616Z,93851.87
2018-04-23T05:47:48.211Z,93851.73
2018-04-23T05:50:16.629Z,93848.63
2018-04-23T05:52:49.068Z,93850.36
2018-04-23T05:55:17.469Z,93854.09
2018-04-23T05:57:45.879Z,93853.62
2018-04-23T06:00:14.368Z,93858.33
2018-04-23T06:02:42.857Z,93850.66
2018-04-23T06:05:11.328Z,93854.01
2018-04-23T06:07:39.766Z,93853.11
2018-04-23T06:10:08.209Z,93853.80
2018-04-23T06:12:38.700Z,93854.36
2018-04-23T06:15:07.181Z,93859.39
2018-04-23T06:17:35.640Z,93860.44
2018-04-23T06:20:05.271Z,93854.62
2018-04-23T06:22:33.734Z,93859.20
2018-04-23T06:25:02.159Z,93858.44
2018-04-23T06:27:30.607Z,93857.02
2018-04-23T06:30:00.672Z,93857.18
2018-04-23T06:32:30.479Z,93849.23
2018-04-23T06:34:59.875Z,93859.91
2018-04-23T06:37:30.379Z,93860.96
2018-04-23T06:40:00.430Z,93857.55
2018-04-23T06:42:28.840Z,93857.33
2018-04-23T06:44:59.627Z,93863.95
2018-04-23T06:47:28.027Z,93862.41
2018-04-23T06:49:58.055Z,93865.94
2018-04-23T06:52:26.488Z,93870.20
2018-04-23T06:55:00.932Z,93859.63
2018-04-23T06:57:29.610Z,93858.88
2018-04-23T06:59:58.008Z,93858.72
2018-04-23T07:02:26.477Z,93861.58
2018-04-23T07:04:56.744Z,93860.35
2018-04-23T07:07:25.491Z,93864.95
2018-04-23T07:09:55.961Z,93870.45
2018-04-23T07:12:24.403Z,93868.02
2018-04-23T07:14:52.872Z,93867.83
2018-04-23T07:17:21.677Z,93867.73
2018-04-23T07:19:52.051Z,93864.88
2018-04-23T07:22:20.455Z,93868.64
2018-04-23T07:24:48.887Z,93874.39
2018-04-23T07:27:19.407Z,93882.97
2018-04-23T07:29:47.851Z,93883.95
2018-04-23T07:32:19.975Z,93884.09
2018-04-23T07:34:48.459Z,93889.29
2018-04-23T07:37:16.884Z,93878.11
2018-04-23T07:39:45.317Z,93883.78
2018-04-23T07:42:13.719Z,93890.75
2018-04-23T07:44:43.832Z,93886.59
2018-04-23T07:47:13.654Z,93887.72
2018-04-23T07:49:42.119Z,93895.36
2018-04-23T07:52:11.145Z,93898.70
2018-04-23T07:54:39.636Z,93901.66
2018-04-23T07:57:08.063Z,93905.03
2018-04-23T07:59:36.572Z,93912.27
2018-04-23T08:02:12.652Z,93909.95
2018-04-23T08:04:42.507Z,93909.28
2018-04-23T08:07:13.003Z,93919.14
2018-04-23T08:09:42.964Z,93929.52
2018-04-23T08:12:11.430Z,93936.06
2018-04-23T08:14:39.928Z,93937.56
2018-04-23T08:17:09.935Z,93947.05
2018-04-23T08:19:38.768Z,93947.03
2018-04-23T08:22:07.188Z,93947.03
2018-04-23T08:24:35.636Z,93949.16
2018-04-23T08:27:04.414Z,93951.05
2018-04-23T08:29:32.836Z,93956.83
2018-04-23T08:32:01.278Z,93962.90
2018-04-23T08:34:29.740Z,93959.34
2018-04-23T08:36:58.207Z,93958.05
2018-04-23T08:39:28.754Z,93954.28
2018-04-23T08:41:57.434Z,93953.34
2018-04-23T08:44:27.420Z,93953.02
2018-04-23T08:46:55.823Z,93956.53
2018-04-23T08:49:24.277Z,93964.13
2018-04-23T08:51:52.893Z,93964.52
2018-04-23T08:54:21.324Z,93964.23
2018-04-23T08:56:51.504Z,93966.83
2018-04-23T08:59:19.907Z,93973.39
2018-04-23T09:01:48.346Z,93966.02
2018-04-23T09:04:18.890Z,93972.14
2018-04-23T09:06:47.291Z,93970.42
2018-04-23T09:09:17.020Z,93972.80
2018-04-23T09:11:47.404Z,93972.09
2018-04-23T09:14:15.919Z,93972.23
2018-04-23T09:16:44.335Z,93971.36
2018-04-23T09:19:13.069Z,93970.63
2018-04-23T09:21:41.480Z,93970.59
2018-04-23T09:24:11.404Z,93970.08
2018-04-23T09:26:39.926Z,93978.86
2018-04-23T09:29:08.356Z,93989.80
2018-04-23T09:31:38.345Z,93984.19
2018-04-23T09:34:08.477Z,93989.16
2018-04-23T09:36:38.445Z,93992.48
2018-04-23T09:39:06.872Z,93993.61
2018-04-23T09:41:35.298Z,93991.52
2018-04-23T09:44:03.776Z,93997.55
2018-04-23T09:46:32.152Z,93994.34
2018-04-23T09:49:02.128Z,93988.12
2018-04-23T09:51:30.606Z,94000.58
2018-04-23T09:53:59.085Z,93997.96
2018-04-23T09:56:29.495Z,93992.03
2018-04-23T09:58:57.931Z,93988.89
2018-04-23T10:01:30.212Z,93984.12
2018-04-23T10:04:04.748Z,93986.33
2018-04-23T10:06:34.821Z,93983.95
2018-04-23T10:09:03.309Z,93984.22
2018-04-23T10:11:31.851Z,93991.38
2018-04-23T10:14:04.223Z,93991.31
2018-04-23T10:16:32.635Z,93996.74
2018-04-23T10:19:01.447Z,93992.20
2018-04-23T10:21:31.924Z,94002.34
2018-04-23T10:24:00.336Z,93997.31
2018-04-23T10:26:28.797Z,93994.53
2018-04-23T10:28:57.216Z,94000.08
2018-04-23T10:31:25.719Z,94006.28
2018-04-23T10:34:00.225Z,94001.80
2018-04-23T10:36:31.116Z,93997.10
2018-04-23T10:38:59.590Z,94000.08
2018-04-23T10:41:31.723Z,93994.74
2018-04-23T10:44:02.251Z,93994.98
2018-04-23T10:46:30.678Z,93989.48
2018-04-23T10:48:59.123Z,93996.94
2018-04-23T10:51:27.538Z,93997.25
2018-04-23T10:53:56.091Z,94000.89
2018-04-23T10:56:24.520Z,93994.44
2018-04-23T10:58:56.239Z,93992.98
2018-04-23T11:01:24.676Z,93999.09
2018-04-23T11:03:55.052Z,93998.17
2018-04-23T11:06:27.263Z,94000.53
2018-04-23T11:08:57.745Z,94006.38
2018-04-23T11:11:26.183Z,94014.90
2018-04-23T11:13:54.643Z,94005.28
2018-04-23T11:16:25.126Z,94012.73
2018-04-23T11:18:53.563Z,94017.14
2018-04-23T11:21:22.042Z,94020.19
2018-04-23T11:23:50.500Z,94022.81
2018-04-23T11:26:18.914Z,94028.77
2018-04-23T11:28:48.891Z,94024.47
2018-04-23T11:31:17.259Z,94023.80
2018-04-23T11:33:47.745Z,94032.59
2018-04-23T11:36:16.175Z,94028.66
2018-04-23T11:38:46.694Z,94036.27
2018-04-23T11:41:17.246Z,94026.37
2018-04-23T11:43:47.826Z,94033.86
2018-04-23T11:46:20.367Z,94034.22
2018-04-23T11:48:48.835Z,94045.28
2018-04-23T11:51:19.383Z,94055.56
2018-04-23T11:53:49.915Z,94056.49
2018-04-23T11:56:18.406Z,94060.35
2018-04-23T11:58:46.835Z,94055.45
2018-04-23T12:01:15.351Z,94061.31
2018-04-23T12:03:47.542Z,94054.06
2018-04-23T12:06:15.942Z,94059.40
2018-04-23T12:08:44.396Z,94055.66
2018-04-23T12:11:12.919Z,94061.84
2018-04-23T12:13:41.347Z,94058.22
2018-04-23T12:16:11.851Z,94060.03
2018-04-23T12:18:41.908Z,94053.85
2018-04-23T12:21:10.348Z,94052.69
2018-04-23T12:23:38.782Z,94053.58
2018-04-23T12:26:07.252Z,94050.08
2018-04-23T12:28:35.727Z,94044.20
2018-04-23T12:31:04.175Z,94042.61
2018-04-23T12:33:32.593Z,94034.73
2018-04-23T12:36:03.215Z,94037.95
2018-04-23T12:38:33.738Z,94030.88
2018-04-23T12:41:02.227Z,94030.41
2018-04-23T12:43:32.784Z,94030.45
2018-04-23T12:46:01.242Z,94029.55
2018-04-23T12:48:31.814Z,94026.58
2018-04-23T12:51:02.442Z,94021.83
2018-04-23T12:53:30.843Z,94018.87
2018-04-23T12:56:03.414Z,94017.59
2018-04-23T12:58:31.853Z,94014.84
2018-04-23T13:01:00.300Z,94021.06
2018-04-23T13:03:32.471Z,94022.36
2018-04-23T13:06:02.951Z,94024.73
2018-04-23T13:08:32.951Z,94021.11
2018-04-23T13:11:03.451Z,94013.99
2018-04-23T13:13:33.910Z,94007.98
2018-04-23T13:16:02.343Z,94005.94
2018-04-23T13:18:30.827Z,94012.24
2018-04-23T13:20:59.199Z,94011.67
2018-04-23T13:23:27.643Z,94012.98
2018-04-23T13:25:57.791Z,94013.48
2018-04-23T13:28:26.235Z,94017.05
2018-04-23T13:30:54.656Z,94020.31
2018-04-23T13:33:29.256Z,94020.84
2018-04-23T13:35:59.766Z,94025.16
2018-04-23T13:38:28.159Z,94021.45
2018-04-23T13:40:56.634Z,94018.16
2018-04-23T13:43:27.051Z,94011.69
2018-04-23T13:45:55.531Z,93997.13
2018-04-23T13:48:24.012Z,93985.17
2018-04-23T13:50:59.694Z,93978.07
2018-04-23T13:53:28.147Z,93970.41
2018-04-23T13:55:56.600Z,93969.66
2018-04-23T13:58:27.088Z,93976.62
2018-04-23T14:00:57.789Z,93968.14
2018-04-23T14:03:28.422Z,93971.57
2018-04-23T14:05:56.962Z,93970.50
2018-04-23T14:08:25.405Z,93977.77
2018-04-23T14:10:55.504Z,93978.33
2018-04-23T14:13:23.959Z,93976.97
2018-04-23T14:15:52.434Z,93973.08
2018-04-23T14:18:20.962Z,93985.16
2018-04-23T14:20:49.431Z,93978.19
2018-04-23T14:23:17.874Z,93973.63
2018-04-23T14:25:48.177Z,93971.50
2018-04-23T14:28:16.576Z,93973.27
2018-04-23T14:30:45.021Z,93978.66
2018-04-23T14:33:13.761Z,93978.34
2018-04-23T14:35:47.479Z,93982.13
2018-04-23T14:38:17.672Z,93982.06
2018-04-23T14:40:47.619Z,93980.11
2018-04-23T14:43:16.029Z,93976.86
2018-04-23T14:45:44.478Z,93981.33
2018-04-23T14:48:13.352Z,93980.67
2018-04-23T14:50:42.744Z,93987.87
2018-04-23T14:53:11.237Z,93984.58
2018-04-23T14:55:39.658Z,93979.06
2018-04-23T14:58:11.821Z,93982.64
2018-04-23T15:00:43.657Z,93980.23
2018-04-23T15:03:12.144Z,93983.05
2018-04-23T15:05:40.644Z,93983.26
2018-04-23T15:08:09.056Z,93987.03
2018-04-23T15:10:38.226Z,93977.74
2018-04-23T15:13:06.667Z,93982.58
2018-04-23T15:15:35.143Z,93982.91
2018-04-23T15:18:03.609Z,93983.39
2018-04-23T15:20:32.399Z,93986.89
2018-04-23T15:23:00.813Z,93986.34
2018-04-23T15:25:31.347Z,93988.70
2018-04-23T15:27:59.828Z,93985.06
2018-04-23T15:30:28.258Z,93989.34
2018-04-23T15:32:58.269Z,93980.05
2018-04-23T15:35:26.696Z,93989.91
2018-04-23T15:37:57.205Z,93986.05
2018-04-23T15:40:29.238Z,93990.27
2018-04-23T15:42:57.728Z,93994.45
2018-04-23T15:45:26.203Z,93994.06
2018-04-23T15:47:54.640Z,93988.69
2018-04-23T15:50:25.206Z,93985.00
2018-04-23T15:52:53.660Z,93982.36
2018-04-23T15:55:22.092Z,93975.95
2018-04-23T15:57:50.554Z,93972.94
2018-04-23T16:00:19.293Z,93975.31
2018-04-23T16:02:47.724Z,93968.44
2018-04-23T16:05:16.169Z,93975.81
2018-04-23T16:07:44.625Z,93972.77
2018-04-23T16:10:13.046Z,93982.45
2018-04-23T16:12:41.700Z,93976.72
2018-04-23T16:15:10.172Z,93980.53
2018-04-23T16:17:38.644Z,93978.33
2018-04-23T16:20:09.236Z,93978.77
2018-04-23T16:22:38.259Z,93983.47
2018-04-23T16:25:08.794Z,93986.34
2018-04-23T16:27:39.411Z,93987.14
2018-04-23T16:30:09.930Z,93989.86
2018-04-23T16:32:39.348Z,93995.09
2018-04-23T16:35:07.804Z,94001.95
2018-04-23T16:37:36.242Z,94002.61
2018-04-23T16:40:05.017Z,94007.94
2018-04-23T16:42:33.443Z,93998.09
2018-04-23T16:45:01.894Z,93998.20
2018-04-23T16:47:30.495Z,93998.09
2018-04-23T16:50:01.056Z,93987.92
2018-04-23T16:52:29.547Z,93984.83
2018-04-23T16:54:58.757Z,93979.77
2018-04-23T16:57:29.311Z,93982.50
2018-04-23T16:59:59.788Z,93975.71
2018-04-23T17:02:30.737Z,93985.88
2018-04-23T17:04:59.188Z,93980.42
2018-04-23T17:07:29.829Z,93982.33
2018-04-23T17:09:58.316Z,93993.75
2018-04-23T17:12:26.768Z,93981.42
2018-04-23T17:14:55.229Z,93988.88
2018-04-23T17:17:25.521Z,93983.23
2018-04-23T17:19:54.012Z,93979.77
2018-04-23T17:22:22.453Z,93977.23
2018-04-23T17:24:50.902Z,93974.89
2018-04-23T17:27:19.447Z,93978.99
2018-04-23T17:29:50.439Z,93985.55
2018-04-23T17:32:18.910Z,93990.25
2018-04-23T17:34:49.557Z,93991.69
2018-04-23T17:37:20.143Z,93991.60
2018-04-23T17:39:50.779Z,93980.38
2018-04-23T17:42:19.185Z,93987.73
2018-04-23T17:44:51.845Z,93985.30
2018-04-23T17:47:20.306Z,93996.66
2018-04-23T17:49:48.814Z,93984.91
2018-04-23T17:52:17.228Z,93992.95
2018-04-23T17:54:45.646Z,93993.82
2018-04-23T17:57:16.179Z,93998.12
2018-04-23T17:59:46.781Z,93991.23
2018-04-23T18:02:17.367Z,93989.42
2018-04-23T18:04:45.818Z,93992.28
2018-04-23T18:07:14.293Z,93987.03
2018-04-23T18:09:42.940Z,93997.47
2018-04-23T18:12:11.335Z,93991.09
2018-04-23T18:14:41.559Z,93999.80
2018-04-23T18:17:10.265Z,94000.05
2018-04-23T18:19:38.680Z,93998.22
2018-04-23T18:22:09.045Z,93995.06
2018-04-23T18:24:37.455Z,93986.95
2018-04-23T18:27:05.901Z,93991.16
2018-04-23T18:29:34.295Z,93990.30
2018-04-23T18:32:05.199Z,93991.28
2018-04-23T18:34:33.571Z,93992.70
2018-04-23T18:37:01.952Z,93991.56
2018-04-23T18:39:30.399Z,93995.55
2018-04-23T18:41:58.851Z,93996.97
2018-04-23T18:44:27.511Z,94002.81
2018-04-23T18:46:58.027Z,94005.77
2018-04-23T18:49:26.400Z,94001.18
2018-04-23T18:51:56.910Z,94002.20
2018-04-23T18:54:25.303Z,94012.88
2018-04-23T18:56:56.376Z,94022.12
2018-04-23T18:59:24.807Z,94029.34
2018-04-23T19:01:53.234Z,94024.56
2018-04-23T19:04:23.811Z,94031.13
2018-04-23T19:06:52.268Z,94037.92
2018-04-23T19:09:20.686Z,94044.34
2018-04-23T19:11:49.134Z,94053.59
2018-04-23T19:14:17.590Z,94057.40
2018-04-23T19:16:46.035Z,94065.28
2018-04-23T19:19:14.547Z,94069.41
2018-04-23T19:21:42.924Z,94071.98
2018-04-23T19:24:13.601Z,94078.33
2018-04-23T19:26:42.349Z,94077.33
2018-04-23T19:29:10.739Z,94082.08
2018-04-23T19:31:39.240Z,94090.41
2018-04-23T19:34:07.684Z,94090.38
2018-04-23T19:36:36.112Z,94093.40
2018-04-23T19:39:05.780Z,94096.72
2018-04-23T19:41:36.344Z,94092.69
2018-04-23T19:44:04.751Z,94094.11
2018-04-23T19:46:35.324Z,94101.23
2018-04-23T19:49:03.796Z,94093.48
2018-04-23T19:51:32.173Z,94096.05
2018-04-23T19:54:00.579Z,94096.19
2018-04-23T19:56:29.061Z,94099.30
2018-04-23T19:58:59.715Z,94104.02
2018-04-23T20:01:28.138Z,94105.13
2018-04-23T20:03:58.636Z,94102.73
2018-04-23T20:06:27.057Z,94102.62
2018-04-23T20:08:55.440Z,94104.37
2018-04-23T20:11:25.870Z,94101.87
2018-04-23T20:13:56.730Z,94100.59
2018-04-23T20:16:25.153Z,94105.80
2018-04-23T20:18:55.699Z,94107.82
2018-04-23T20:21:24.188Z,94108.33
2018-04-23T20:23:54.723Z,94102.41
2018-04-23T20:26:23.087Z,94106.00
2018-04-23T20:28:53.961Z,94110.82
2018-04-23T20:31:22.424Z,94114.55
2018-04-23T20:33:50.889Z,94108.97
2018-04-23T20:36:19.723Z,94105.23
2018-04-23T20:38:48.104Z,94106.25
2018-04-23T20:41:16.542Z,94104.44
2018-04-23T20:43:47.263Z,94104.87
2018-04-23T20:46:15.676Z,94107.61
2018-04-23T20:48:46.213Z,94104.89
2018-04-23T20:51:16.843Z,94113.61
2018-04-23T20:53:45.234Z,94117.87
2018-04-23T20:56:13.659Z,94118.37
2018-04-23T20:58:42.074Z,94114.84
2018-04-23T21:01:10.538Z,94117.89
2018-04-23T21:03:38.956Z,94125.23
2018-04-23T21:06:07.408Z,94117.89
2018-04-23T21:08:35.835Z,94123.17
2018-04-23T21:11:06.336Z,94121.48
2018-04-23T21:13:34.711Z,94125.64
2018-04-23T21:16:03.505Z,94111.03
2018-04-23T21:18:31.890Z,94128.91
2018-04-23T21:21:00.316Z,94122.02
2018-04-23T21:23:28.740Z,94121.23
2018-04-23T21:25:57.118Z,94129.72
2018-04-23T21:28:27.692Z,94130.34
2018-04-23T21:30:56.194Z,94123.06
2018-04-23T21:33:24.534Z,94127.52
2018-04-23T21:35:55.155Z,94140.81
2018-04-23T21:38:23.555Z,94131.56
2018-04-23T21:40:54.087Z,94141.43
2018-04-23T21:43:24.600Z,94140.29
2018-04-23T21:45:52.995Z,94146.89
2018-04-23T21:48:21.368Z,94145.38
2018-04-23T21:50:51.944Z,94137.88
2018-04-23T21:53:20.343Z,94146.98
2018-04-23T21:55:50.891Z,94138.98
2018-04-23T21:58:19.259Z,94139.89
2018-04-23T22:00:47.622Z,94140.50
2018-04-23T22:03:18.157Z,94148.00
2018-04-23T22:05:46.546Z,94148.02
2018-04-23T22:08:14.907Z,94148.01
2018-04-23T22:10:43.314Z,94148.42
2018-04-23T22:13:11.682Z,94141.03
2018-04-23T22:15:40.380Z,94144.76
2018-04-23T22:18:08.804Z,94142.53
2018-04-23T22:20:37.123Z,94147.00
2018-04-23T22:23:05.532Z,94149.22
2018-04-23T22:25:34.258Z,94145.56
2018-04-23T22:28:04.817Z,94138.23
2018-04-23T22:30:35.347Z,94147.34
2018-04-23T22:33:03.742Z,94148.96
2018-04-23T22:35:33.899Z,94142.47
2018-04-23T22:38:02.362Z,94142.68
2018-04-23T22:40:30.752Z,94148.56
2018-04-23T22:42:59.148Z,94146.92
2018-04-23T22:45:29.731Z,94145.89
2018-04-23T22:47:58.351Z,94134.92
2018-04-23T22:50:26.819Z,94143.34
2018-04-23T22:52:57.279Z,94142.63
2018-04-23T22:55:25.652Z,94140.59
2018-04-23T22:57:56.180Z,94144.24
2018-04-23T23:00:24.635Z,94143.92
2018-04-23T23:02:53.079Z,94145.45
2018-04-23T23:05:21.546Z,94146.47
2018-04-23T23:07:50.021Z,94145.98
2018-04-23T23:10:18.446Z,94145.28
2018-04-23T23:12:48.990Z,94145.88
2018-04-23T23:15:19.541Z,94139.39
2018-04-23T23:17:47.994Z,94140.02
2018-04-23T23:20:18.526Z,94140.30
2018-04-23T23:22:47.022Z,94141.20
2018-04-23T23:25:15.793Z,94143.62
2018-04-23T23:27:44.194Z,94150.11
2018-04-23T23:30:14.807Z,94146.04
2018-04-23T23:32:43.591Z,94134.45
2018-04-23T23:35:12.001Z,94126.56
2018-04-23T23:37:42.495Z,94134.05
2018-04-23T23:40:13.083Z,94132.23
2018-04-23T23:42:41.535Z,94130.80
2018-04-23T23:45:10.006Z,94125.84
2018-04-23T23:47:38.409Z,94127.06
2018-04-23T23:50:07.099Z,94133.30
2018-04-23T23:52:35.579Z,94124.19
2018-04-23T23:55:04.004Z,94131.80
2018-04-23T23:57:32.515Z,94122.50
